sensor_id;sensor_type;location;lat;lon;timestamp;P1;durP1;ratioP1;P2;durP2;ratioP2
47167;SDS011;32931;47.778;17.806;2022-12-01T00:00:39;44.67;;;28.33;;
47167;SDS011;32931;47.778;17.806;2022-12-01T00:03:06;49.33;;;28.77;;
47167;SDS011;32931;47.778;17.806;2022-12-01T00:05:32;49.83;;;28.73;;
47167;SDS011;32931;47.778;17.806;2022-12-01T00:07:58;48.78;;;29.10;;
47167;SDS011;32931;47.778;17.806;2022-12-01T00:10:24;48.10;;;30.80;;
47167;SDS011;32931;47.778;17.806;2022-12-01T00:12:54;46.70;;;28.75;;
47167;SDS011;32931;47.778;17.806;2022-12-01T00:15:24;50.85;;;30.70;;
47167;SDS011;32931;47.778;17.806;2022-12-01T00:17:51;56.13;;;32.47;;
47167;SDS011;32931;47.778;17.806;2022-12-01T00:20:18;51.70;;;30.58;;
47167;SDS011;32931;47.778;17.806;2022-12-01T00:22:44;51.97;;;30.88;;
47167;SDS011;32931;47.778;17.806;2022-12-01T00:25:12;65.07;;;34.80;;
47167;SDS011;32931;47.778;17.806;2022-12-01T00:27:40;65.07;;;36.20;;
47167;SDS011;32931;47.778;17.806;2022-12-01T00:30:08;59.40;;;36.58;;
47167;SDS011;32931;47.778;17.806;2022-12-01T00:32:36;60.85;;;34.55;;
47167;SDS011;32931;47.778;17.806;2022-12-01T00:35:03;55.58;;;32.72;;
47167;SDS011;32931;47.778;17.806;2022-12-01T00:37:30;52.42;;;32.85;;
47167;SDS011;32931;47.778;17.806;2022-12-01T00:39:58;60.45;;;36.45;;
47167;SDS011;32931;47.778;17.806;2022-12-01T00:42:24;60.05;;;36.22;;
47167;SDS011;32931;47.778;17.806;2022-12-01T00:44:51;64.70;;;36.00;;
47167;SDS011;32931;47.778;17.806;2022-12-01T00:47:18;59.88;;;34.92;;
47167;SDS011;32931;47.778;17.806;2022-12-01T00:49:44;61.42;;;34.88;;
47167;SDS011;32931;47.778;17.806;2022-12-01T00:52:11;62.05;;;37.15;;
47167;SDS011;32931;47.778;17.806;2022-12-01T00:54:38;63.20;;;35.53;;
47167;SDS011;32931;47.778;17.806;2022-12-01T00:57:05;59.97;;;34.72;;
47167;SDS011;32931;47.778;17.806;2022-12-01T00:59:31;62.53;;;35.58;;
47167;SDS011;32931;47.778;17.806;2022-12-01T01:01:58;63.20;;;36.05;;
47167;SDS011;32931;47.778;17.806;2022-12-01T01:04:24;66.72;;;37.60;;
47167;SDS011;32931;47.778;17.806;2022-12-01T01:06:53;78.45;;;42.13;;
47167;SDS011;32931;47.778;17.806;2022-12-01T01:09:19;116.13;;;60.35;;
47167;SDS011;32931;47.778;17.806;2022-12-01T01:11:45;127.65;;;65.18;;
47167;SDS011;32931;47.778;17.806;2022-12-01T01:14:11;127.55;;;62.50;;
47167;SDS011;32931;47.778;17.806;2022-12-01T01:16:38;120.50;;;57.65;;
47167;SDS011;32931;47.778;17.806;2022-12-01T01:19:04;111.55;;;55.33;;
47167;SDS011;32931;47.778;17.806;2022-12-01T01:21:30;109.93;;;55.20;;
47167;SDS011;32931;47.778;17.806;2022-12-01T01:23:57;101.15;;;49.42;;
47167;SDS011;32931;47.778;17.806;2022-12-01T01:26:24;102.75;;;50.38;;
47167;SDS011;32931;47.778;17.806;2022-12-01T01:28:52;97.85;;;48.50;;
47167;SDS011;32931;47.778;17.806;2022-12-01T01:31:22;96.93;;;47.25;;
47167;SDS011;32931;47.778;17.806;2022-12-01T01:33:50;78.60;;;39.67;;
47167;SDS011;32931;47.778;17.806;2022-12-01T01:36:17;69.72;;;37.88;;
47167;SDS011;32931;47.778;17.806;2022-12-01T01:38:43;56.75;;;32.72;;
47167;SDS011;32931;47.778;17.806;2022-12-01T01:41:10;77.35;;;40.67;;
47167;SDS011;32931;47.778;17.806;2022-12-01T01:43:41;81.82;;;40.40;;
47167;SDS011;32931;47.778;17.806;2022-12-01T01:46:15;77.95;;;40.92;;
47167;SDS011;32931;47.778;17.806;2022-12-01T01:48:47;72.60;;;36.97;;
47167;SDS011;32931;47.778;17.806;2022-12-01T01:51:34;72.68;;;36.22;;
47167;SDS011;32931;47.778;17.806;2022-12-01T01:54:03;73.10;;;37.67;;
47167;SDS011;32931;47.778;17.806;2022-12-01T01:56:34;68.28;;;36.90;;
47167;SDS011;32931;47.778;17.806;2022-12-01T01:59:01;62.95;;;35.83;;
47167;SDS011;32931;47.778;17.806;2022-12-01T02:01:28;64.18;;;35.28;;
47167;SDS011;32931;47.778;17.806;2022-12-01T02:03:55;57.60;;;33.63;;
47167;SDS011;32931;47.778;17.806;2022-12-01T02:06:22;57.70;;;33.08;;
47167;SDS011;32931;47.778;17.806;2022-12-01T02:08:49;56.88;;;31.98;;
47167;SDS011;32931;47.778;17.806;2022-12-01T02:25:26;56.50;;;29.42;;
47167;SDS011;32931;47.778;17.806;2022-12-01T02:30:57;45.80;;;27.10;;
47167;SDS011;32931;47.778;17.806;2022-12-01T02:33:35;50.80;;;28.15;;
47167;SDS011;32931;47.778;17.806;2022-12-01T02:39:15;45.72;;;28.25;;
47167;SDS011;32931;47.778;17.806;2022-12-01T02:41:49;46.35;;;27.17;;
47167;SDS011;32931;47.778;17.806;2022-12-01T02:46:56;44.00;;;26.85;;
47167;SDS011;32931;47.778;17.806;2022-12-01T02:49:27;42.75;;;27.10;;
47167;SDS011;32931;47.778;17.806;2022-12-01T02:51:56;52.55;;;27.52;;
47167;SDS011;32931;47.778;17.806;2022-12-01T02:54:23;48.78;;;28.77;;
47167;SDS011;32931;47.778;17.806;2022-12-01T02:56:51;46.03;;;25.90;;
47167;SDS011;32931;47.778;17.806;2022-12-01T02:59:18;45.03;;;26.50;;
47167;SDS011;32931;47.778;17.806;2022-12-01T03:04:30;45.42;;;28.55;;
47167;SDS011;32931;47.778;17.806;2022-12-01T03:12:43;42.05;;;26.27;;
47167;SDS011;32931;47.778;17.806;2022-12-01T03:17:53;42.67;;;26.73;;
47167;SDS011;32931;47.778;17.806;2022-12-01T03:20:32;42.72;;;27.08;;
47167;SDS011;32931;47.778;17.806;2022-12-01T03:23:07;44.50;;;28.13;;
47167;SDS011;32931;47.778;17.806;2022-12-01T03:25:40;53.67;;;30.95;;
47167;SDS011;32931;47.778;17.806;2022-12-01T03:28:11;49.00;;;29.20;;
47167;SDS011;32931;47.778;17.806;2022-12-01T03:30:40;56.35;;;28.88;;
47167;SDS011;32931;47.778;17.806;2022-12-01T03:33:09;47.30;;;29.05;;
47167;SDS011;32931;47.778;17.806;2022-12-01T03:38:25;45.80;;;26.70;;
47167;SDS011;32931;47.778;17.806;2022-12-01T03:40:59;47.97;;;28.50;;
47167;SDS011;32931;47.778;17.806;2022-12-01T03:43:31;44.97;;;28.30;;
47167;SDS011;32931;47.778;17.806;2022-12-01T03:48:52;54.30;;;29.92;;
47167;SDS011;32931;47.778;17.806;2022-12-01T03:51:26;50.70;;;28.55;;
47167;SDS011;32931;47.778;17.806;2022-12-01T03:54:10;50.15;;;28.90;;
47167;SDS011;32931;47.778;17.806;2022-12-01T03:56:48;50.72;;;27.83;;
47167;SDS011;32931;47.778;17.806;2022-12-01T03:59:26;43.58;;;27.75;;
47167;SDS011;32931;47.778;17.806;2022-12-01T04:01:54;43.05;;;25.98;;
47167;SDS011;32931;47.778;17.806;2022-12-01T04:04:21;43.85;;;26.05;;
47167;SDS011;32931;47.778;17.806;2022-12-01T04:06:48;46.17;;;26.25;;
47167;SDS011;32931;47.778;17.806;2022-12-01T04:09:15;41.20;;;25.20;;
47167;SDS011;32931;47.778;17.806;2022-12-01T04:11:41;45.10;;;25.55;;
47167;SDS011;32931;47.778;17.806;2022-12-01T04:14:26;44.33;;;26.23;;
47167;SDS011;32931;47.778;17.806;2022-12-01T04:16:53;48.45;;;26.98;;
47167;SDS011;32931;47.778;17.806;2022-12-01T04:19:19;48.38;;;25.23;;
47167;SDS011;32931;47.778;17.806;2022-12-01T04:21:45;41.95;;;25.55;;
47167;SDS011;32931;47.778;17.806;2022-12-01T04:24:12;43.22;;;26.38;;
47167;SDS011;32931;47.778;17.806;2022-12-01T04:26:39;44.40;;;26.67;;
47167;SDS011;32931;47.778;17.806;2022-12-01T04:29:08;52.22;;;25.40;;
47167;SDS011;32931;47.778;17.806;2022-12-01T04:31:36;41.20;;;25.00;;
47167;SDS011;32931;47.778;17.806;2022-12-01T04:34:03;41.75;;;24.38;;
47167;SDS011;32931;47.778;17.806;2022-12-01T04:36:30;43.00;;;26.38;;
47167;SDS011;32931;47.778;17.806;2022-12-01T04:38:57;41.58;;;25.98;;
47167;SDS011;32931;47.778;17.806;2022-12-01T04:41:24;45.15;;;26.65;;
47167;SDS011;32931;47.778;17.806;2022-12-01T04:43:53;50.72;;;26.10;;
47167;SDS011;32931;47.778;17.806;2022-12-01T04:46:20;45.83;;;26.50;;
47167;SDS011;32931;47.778;17.806;2022-12-01T04:48:47;46.10;;;27.70;;
47167;SDS011;32931;47.778;17.806;2022-12-01T04:51:13;43.40;;;27.30;;
47167;SDS011;32931;47.778;17.806;2022-12-01T04:53:40;60.08;;;29.08;;
47167;SDS011;32931;47.778;17.806;2022-12-01T04:56:06;44.35;;;26.95;;
47167;SDS011;32931;47.778;17.806;2022-12-01T04:58:32;43.50;;;26.15;;
47167;SDS011;32931;47.778;17.806;2022-12-01T05:01:02;57.72;;;31.02;;
47167;SDS011;32931;47.778;17.806;2022-12-01T05:03:30;52.75;;;28.42;;
47167;SDS011;32931;47.778;17.806;2022-12-01T05:06:00;48.25;;;28.75;;
47167;SDS011;32931;47.778;17.806;2022-12-01T05:08:31;44.85;;;27.35;;
47167;SDS011;32931;47.778;17.806;2022-12-01T05:10:58;49.70;;;27.48;;
47167;SDS011;32931;47.778;17.806;2022-12-01T05:13:25;51.03;;;27.65;;
47167;SDS011;32931;47.778;17.806;2022-12-01T05:15:52;43.67;;;25.40;;
47167;SDS011;32931;47.778;17.806;2022-12-01T05:18:18;41.67;;;25.70;;
47167;SDS011;32931;47.778;17.806;2022-12-01T05:20:44;44.13;;;24.63;;
47167;SDS011;32931;47.778;17.806;2022-12-01T05:23:26;43.53;;;25.25;;
47167;SDS011;32931;47.778;17.806;2022-12-01T05:25:54;53.30;;;29.90;;
47167;SDS011;32931;47.778;17.806;2022-12-01T05:28:21;47.08;;;25.35;;
47167;SDS011;32931;47.778;17.806;2022-12-01T05:30:49;48.30;;;25.83;;
47167;SDS011;32931;47.778;17.806;2022-12-01T05:33:16;47.63;;;26.27;;
47167;SDS011;32931;47.778;17.806;2022-12-01T05:35:42;45.72;;;26.77;;
47167;SDS011;32931;47.778;17.806;2022-12-01T05:38:09;42.70;;;25.48;;
47167;SDS011;32931;47.778;17.806;2022-12-01T05:40:36;51.53;;;28.13;;
47167;SDS011;32931;47.778;17.806;2022-12-01T05:43:02;42.80;;;25.67;;
47167;SDS011;32931;47.778;17.806;2022-12-01T05:45:29;48.55;;;26.40;;
47167;SDS011;32931;47.778;17.806;2022-12-01T05:47:58;44.20;;;27.35;;
47167;SDS011;32931;47.778;17.806;2022-12-01T05:50:27;44.72;;;26.10;;
47167;SDS011;32931;47.778;17.806;2022-12-01T05:52:54;51.47;;;27.90;;
47167;SDS011;32931;47.778;17.806;2022-12-01T05:55:21;50.70;;;28.88;;
47167;SDS011;32931;47.778;17.806;2022-12-01T05:57:47;48.95;;;28.30;;
47167;SDS011;32931;47.778;17.806;2022-12-01T06:00:13;53.00;;;29.80;;
47167;SDS011;32931;47.778;17.806;2022-12-01T06:02:40;52.38;;;28.00;;
47167;SDS011;32931;47.778;17.806;2022-12-01T06:05:07;62.00;;;32.33;;
47167;SDS011;32931;47.778;17.806;2022-12-01T06:07:33;59.42;;;31.75;;
47167;SDS011;32931;47.778;17.806;2022-12-01T06:10:00;65.32;;;34.20;;
47167;SDS011;32931;47.778;17.806;2022-12-01T06:12:27;60.15;;;32.40;;
47167;SDS011;32931;47.778;17.806;2022-12-01T06:14:53;130.13;;;71.43;;
47167;SDS011;32931;47.778;17.806;2022-12-01T06:17:19;77.75;;;39.13;;
47167;SDS011;32931;47.778;17.806;2022-12-01T06:19:46;61.45;;;31.98;;
47167;SDS011;32931;47.778;17.806;2022-12-01T06:22:12;65.68;;;34.40;;
47167;SDS011;32931;47.778;17.806;2022-12-01T06:24:38;66.85;;;35.83;;
47167;SDS011;32931;47.778;17.806;2022-12-01T06:27:04;84.82;;;45.10;;
47167;SDS011;32931;47.778;17.806;2022-12-01T06:29:30;133.30;;;67.25;;
47167;SDS011;32931;47.778;17.806;2022-12-01T06:31:57;93.93;;;51.05;;
47167;SDS011;32931;47.778;17.806;2022-12-01T06:34:23;90.70;;;49.85;;
47167;SDS011;32931;47.778;17.806;2022-12-01T06:36:49;68.60;;;37.97;;
47167;SDS011;32931;47.778;17.806;2022-12-01T06:39:15;55.40;;;32.15;;
47167;SDS011;32931;47.778;17.806;2022-12-01T06:41:42;57.53;;;29.77;;
47167;SDS011;32931;47.778;17.806;2022-12-01T06:44:08;51.13;;;28.83;;
47167;SDS011;32931;47.778;17.806;2022-12-01T06:46:35;51.40;;;28.33;;
47167;SDS011;32931;47.778;17.806;2022-12-01T06:49:01;56.90;;;28.95;;
47167;SDS011;32931;47.778;17.806;2022-12-01T06:51:27;49.47;;;28.60;;
47167;SDS011;32931;47.778;17.806;2022-12-01T06:53:55;59.42;;;28.73;;
47167;SDS011;32931;47.778;17.806;2022-12-01T06:56:21;54.22;;;30.38;;
47167;SDS011;32931;47.778;17.806;2022-12-01T06:58:48;53.13;;;30.45;;
47167;SDS011;32931;47.778;17.806;2022-12-01T07:01:15;59.25;;;30.27;;
47167;SDS011;32931;47.778;17.806;2022-12-01T07:03:41;52.42;;;30.27;;
47167;SDS011;32931;47.778;17.806;2022-12-01T07:06:11;57.42;;;31.85;;
47167;SDS011;32931;47.778;17.806;2022-12-01T07:08:37;65.85;;;37.78;;
47167;SDS011;32931;47.778;17.806;2022-12-01T07:11:04;58.42;;;34.22;;
47167;SDS011;32931;47.778;17.806;2022-12-01T07:13:32;69.95;;;34.95;;
47167;SDS011;32931;47.778;17.806;2022-12-01T07:15:59;64.93;;;32.90;;
47167;SDS011;32931;47.778;17.806;2022-12-01T07:18:27;57.22;;;31.70;;
47167;SDS011;32931;47.778;17.806;2022-12-01T07:20:57;58.30;;;34.03;;
47167;SDS011;32931;47.778;17.806;2022-12-01T07:23:24;58.65;;;31.95;;
47167;SDS011;32931;47.778;17.806;2022-12-01T07:25:57;55.10;;;33.22;;
47167;SDS011;32931;47.778;17.806;2022-12-01T07:28:27;53.97;;;32.40;;
47167;SDS011;32931;47.778;17.806;2022-12-01T07:31:00;66.07;;;35.40;;
47167;SDS011;32931;47.778;17.806;2022-12-01T07:33:27;74.43;;;34.78;;
47167;SDS011;32931;47.778;17.806;2022-12-01T07:35:53;80.05;;;38.30;;
47167;SDS011;32931;47.778;17.806;2022-12-01T07:38:19;73.43;;;38.17;;
47167;SDS011;32931;47.778;17.806;2022-12-01T07:40:45;86.35;;;45.05;;
47167;SDS011;32931;47.778;17.806;2022-12-01T07:43:11;81.30;;;43.05;;
47167;SDS011;32931;47.778;17.806;2022-12-01T07:45:38;72.05;;;36.67;;
47167;SDS011;32931;47.778;17.806;2022-12-01T07:48:04;81.88;;;42.55;;
47167;SDS011;32931;47.778;17.806;2022-12-01T07:50:30;73.35;;;38.25;;
47167;SDS011;32931;47.778;17.806;2022-12-01T07:52:56;76.20;;;42.83;;
47167;SDS011;32931;47.778;17.806;2022-12-01T07:55:23;72.85;;;39.83;;
47167;SDS011;32931;47.778;17.806;2022-12-01T07:57:49;60.42;;;36.20;;
47167;SDS011;32931;47.778;17.806;2022-12-01T08:00:15;67.05;;;35.70;;
47167;SDS011;32931;47.778;17.806;2022-12-01T08:02:41;66.80;;;37.92;;
47167;SDS011;32931;47.778;17.806;2022-12-01T08:05:07;62.33;;;37.42;;
47167;SDS011;32931;47.778;17.806;2022-12-01T08:07:34;65.47;;;36.53;;
47167;SDS011;32931;47.778;17.806;2022-12-01T08:10:00;67.15;;;38.38;;
47167;SDS011;32931;47.778;17.806;2022-12-01T08:12:26;72.45;;;42.35;;
47167;SDS011;32931;47.778;17.806;2022-12-01T08:14:52;76.50;;;42.70;;
47167;SDS011;32931;47.778;17.806;2022-12-01T08:17:18;67.32;;;37.92;;
47167;SDS011;32931;47.778;17.806;2022-12-01T08:19:44;58.55;;;35.25;;
47167;SDS011;32931;47.778;17.806;2022-12-01T08:22:10;64.85;;;34.92;;
47167;SDS011;32931;47.778;17.806;2022-12-01T08:24:36;54.78;;;33.47;;
47167;SDS011;32931;47.778;17.806;2022-12-01T08:27:03;57.67;;;33.22;;
47167;SDS011;32931;47.778;17.806;2022-12-01T08:29:29;54.97;;;33.70;;
47167;SDS011;32931;47.778;17.806;2022-12-01T08:31:58;54.70;;;31.30;;
47167;SDS011;32931;47.778;17.806;2022-12-01T08:34:24;54.78;;;32.35;;
47167;SDS011;32931;47.778;17.806;2022-12-01T08:36:51;52.85;;;30.77;;
47167;SDS011;32931;47.778;17.806;2022-12-01T08:39:17;53.67;;;32.10;;
47167;SDS011;32931;47.778;17.806;2022-12-01T08:41:43;52.80;;;31.63;;
47167;SDS011;32931;47.778;17.806;2022-12-01T08:44:09;59.28;;;32.40;;
47167;SDS011;32931;47.778;17.806;2022-12-01T08:46:35;50.65;;;30.83;;
47167;SDS011;32931;47.778;17.806;2022-12-01T08:49:02;50.40;;;31.13;;
47167;SDS011;32931;47.778;17.806;2022-12-01T08:51:29;50.10;;;30.98;;
47167;SDS011;32931;47.778;17.806;2022-12-01T08:53:56;46.70;;;29.25;;
47167;SDS011;32931;47.778;17.806;2022-12-01T08:56:28;45.40;;;29.65;;
47167;SDS011;32931;47.778;17.806;2022-12-01T08:58:56;45.58;;;27.80;;
47167;SDS011;32931;47.778;17.806;2022-12-01T09:01:23;43.40;;;25.80;;
47167;SDS011;32931;47.778;17.806;2022-12-01T09:03:50;42.90;;;24.70;;
47167;SDS011;32931;47.778;17.806;2022-12-01T09:06:43;37.92;;;24.90;;
47167;SDS011;32931;47.778;17.806;2022-12-01T09:09:12;42.75;;;25.80;;
47167;SDS011;32931;47.778;17.806;2022-12-01T09:11:41;42.72;;;27.23;;
47167;SDS011;32931;47.778;17.806;2022-12-01T09:14:11;43.40;;;26.63;;
47167;SDS011;32931;47.778;17.806;2022-12-01T09:16:38;42.97;;;27.17;;
47167;SDS011;32931;47.778;17.806;2022-12-01T09:19:04;41.72;;;27.52;;
47167;SDS011;32931;47.778;17.806;2022-12-01T09:21:31;43.70;;;28.02;;
47167;SDS011;32931;47.778;17.806;2022-12-01T09:23:59;44.95;;;27.52;;
47167;SDS011;32931;47.778;17.806;2022-12-01T09:26:26;46.08;;;27.42;;
47167;SDS011;32931;47.778;17.806;2022-12-01T09:28:54;41.90;;;26.42;;
47167;SDS011;32931;47.778;17.806;2022-12-01T09:31:22;41.42;;;25.85;;
47167;SDS011;32931;47.778;17.806;2022-12-01T09:33:58;40.95;;;23.95;;
47167;SDS011;32931;47.778;17.806;2022-12-01T09:36:26;39.28;;;24.85;;
47167;SDS011;32931;47.778;17.806;2022-12-01T09:38:53;41.72;;;25.65;;
47167;SDS011;32931;47.778;17.806;2022-12-01T09:41:27;39.08;;;24.38;;
47167;SDS011;32931;47.778;17.806;2022-12-01T09:47:07;38.63;;;23.38;;
47167;SDS011;32931;47.778;17.806;2022-12-01T09:49:40;34.33;;;22.37;;
47167;SDS011;32931;47.778;17.806;2022-12-01T09:52:18;37.50;;;22.90;;
47167;SDS011;32931;47.778;17.806;2022-12-01T09:54:45;57.45;;;22.92;;
47167;SDS011;32931;47.778;17.806;2022-12-01T09:57:30;34.70;;;21.83;;
47167;SDS011;32931;47.778;17.806;2022-12-01T10:00:03;37.25;;;22.17;;
47167;SDS011;32931;47.778;17.806;2022-12-01T10:05:26;32.35;;;21.15;;
47167;SDS011;32931;47.778;17.806;2022-12-01T10:08:01;35.15;;;21.55;;
47167;SDS011;32931;47.778;17.806;2022-12-01T10:10:35;35.65;;;21.80;;
47167;SDS011;32931;47.778;17.806;2022-12-01T10:13:14;32.10;;;21.05;;
47167;SDS011;32931;47.778;17.806;2022-12-01T10:26:54;34.33;;;20.40;;
47167;SDS011;32931;47.778;17.806;2022-12-01T10:29:34;37.13;;;22.25;;
47167;SDS011;32931;47.778;17.806;2022-12-01T10:32:17;32.17;;;21.40;;
47167;SDS011;32931;47.778;17.806;2022-12-01T10:34:46;36.78;;;22.42;;
47167;SDS011;32931;47.778;17.806;2022-12-01T10:37:14;35.47;;;22.45;;
47167;SDS011;32931;47.778;17.806;2022-12-01T10:39:45;39.08;;;24.13;;
47167;SDS011;32931;47.778;17.806;2022-12-01T10:45:05;33.10;;;22.67;;
47167;SDS011;32931;47.778;17.806;2022-12-01T10:47:35;39.47;;;23.20;;
47167;SDS011;32931;47.778;17.806;2022-12-01T10:50:02;39.47;;;24.58;;
47167;SDS011;32931;47.778;17.806;2022-12-01T10:52:50;36.60;;;22.15;;
47167;SDS011;32931;47.778;17.806;2022-12-01T10:57:47;39.40;;;22.77;;
47167;SDS011;32931;47.778;17.806;2022-12-01T11:00:20;40.05;;;23.02;;
47167;SDS011;32931;47.778;17.806;2022-12-01T11:02:48;35.85;;;23.58;;
47167;SDS011;32931;47.778;17.806;2022-12-01T11:05:21;38.45;;;24.65;;
47167;SDS011;32931;47.778;17.806;2022-12-01T11:07:50;38.90;;;25.73;;
47167;SDS011;32931;47.778;17.806;2022-12-01T11:10:18;40.80;;;25.73;;
47167;SDS011;32931;47.778;17.806;2022-12-01T11:13:13;44.20;;;26.20;;
47167;SDS011;32931;47.778;17.806;2022-12-01T11:15:54;46.30;;;27.58;;
47167;SDS011;32931;47.778;17.806;2022-12-01T11:21:07;38.85;;;26.05;;
47167;SDS011;32931;47.778;17.806;2022-12-01T11:23:53;44.80;;;25.88;;
47167;SDS011;32931;47.778;17.806;2022-12-01T11:26:30;46.85;;;25.15;;
47167;SDS011;32931;47.778;17.806;2022-12-01T11:28:59;40.30;;;25.02;;
47167;SDS011;32931;47.778;17.806;2022-12-01T11:31:46;40.53;;;24.02;;
47167;SDS011;32931;47.778;17.806;2022-12-01T11:34:23;35.40;;;22.85;;
47167;SDS011;32931;47.778;17.806;2022-12-01T11:37:02;39.72;;;25.40;;
47167;SDS011;32931;47.778;17.806;2022-12-01T11:39:34;44.33;;;25.17;;
47167;SDS011;32931;47.778;17.806;2022-12-01T11:42:11;39.33;;;26.23;;
47167;SDS011;32931;47.778;17.806;2022-12-01T11:44:46;43.28;;;25.65;;
47167;SDS011;32931;47.778;17.806;2022-12-01T11:47:20;44.15;;;25.42;;
47167;SDS011;32931;47.778;17.806;2022-12-01T11:49:59;37.95;;;25.88;;
47167;SDS011;32931;47.778;17.806;2022-12-01T11:52:33;45.40;;;27.25;;
47167;SDS011;32931;47.778;17.806;2022-12-01T11:57:57;43.90;;;26.35;;
47167;SDS011;32931;47.778;17.806;2022-12-01T12:00:28;45.33;;;26.70;;
47167;SDS011;32931;47.778;17.806;2022-12-01T12:13:32;46.13;;;27.35;;
47167;SDS011;32931;47.778;17.806;2022-12-01T12:16:10;45.28;;;27.80;;
47167;SDS011;32931;47.778;17.806;2022-12-01T12:21:18;43.75;;;27.33;;
47167;SDS011;32931;47.778;17.806;2022-12-01T12:29:42;44.20;;;26.52;;
47167;SDS011;32931;47.778;17.806;2022-12-01T12:32:29;44.72;;;26.48;;
47167;SDS011;32931;47.778;17.806;2022-12-01T12:35:41;36.05;;;24.10;;
47167;SDS011;32931;47.778;17.806;2022-12-01T12:41:07;42.28;;;25.35;;
47167;SDS011;32931;47.778;17.806;2022-12-01T12:43:53;40.90;;;24.55;;
47167;SDS011;32931;47.778;17.806;2022-12-01T12:52:37;35.72;;;23.42;;
47167;SDS011;32931;47.778;17.806;2022-12-01T12:54:50;39.08;;;23.83;;
47167;SDS011;32931;47.778;17.806;2022-12-01T12:57:36;37.88;;;23.98;;
47167;SDS011;32931;47.778;17.806;2022-12-01T13:00:06;38.83;;;24.30;;
47167;SDS011;32931;47.778;17.806;2022-12-01T13:03:00;40.67;;;23.73;;
47167;SDS011;32931;47.778;17.806;2022-12-01T13:05:41;40.47;;;23.75;;
47167;SDS011;32931;47.778;17.806;2022-12-01T13:08:28;37.70;;;24.23;;
47167;SDS011;32931;47.778;17.806;2022-12-01T13:11:06;40.88;;;25.20;;
47167;SDS011;32931;47.778;17.806;2022-12-01T13:13:41;36.42;;;24.08;;
47167;SDS011;32931;47.778;17.806;2022-12-01T13:18:48;37.33;;;24.58;;
47167;SDS011;32931;47.778;17.806;2022-12-01T13:21:19;39.80;;;24.80;;
47167;SDS011;32931;47.778;17.806;2022-12-01T13:23:47;40.72;;;25.30;;
47167;SDS011;32931;47.778;17.806;2022-12-01T13:26:16;42.03;;;25.70;;
47167;SDS011;32931;47.778;17.806;2022-12-01T13:28:46;40.83;;;25.10;;
47167;SDS011;32931;47.778;17.806;2022-12-01T13:31:20;42.47;;;23.83;;
47167;SDS011;32931;47.778;17.806;2022-12-01T13:33:55;41.33;;;25.52;;
47167;SDS011;32931;47.778;17.806;2022-12-01T13:36:27;41.45;;;24.85;;
47167;SDS011;32931;47.778;17.806;2022-12-01T13:38:58;40.92;;;25.67;;
47167;SDS011;32931;47.778;17.806;2022-12-01T13:41:37;40.88;;;25.63;;
47167;SDS011;32931;47.778;17.806;2022-12-01T13:44:21;43.50;;;25.63;;
47167;SDS011;32931;47.778;17.806;2022-12-01T13:46:50;42.60;;;25.45;;
47167;SDS011;32931;47.778;17.806;2022-12-01T14:00:35;43.40;;;25.50;;
47167;SDS011;32931;47.778;17.806;2022-12-01T14:08:15;46.22;;;25.45;;
47167;SDS011;32931;47.778;17.806;2022-12-01T14:10:56;47.55;;;25.05;;
47167;SDS011;32931;47.778;17.806;2022-12-01T14:13:23;41.50;;;23.42;;
47167;SDS011;32931;47.778;17.806;2022-12-01T14:15:55;37.78;;;24.33;;
47167;SDS011;32931;47.778;17.806;2022-12-01T14:18:34;38.10;;;24.00;;
47167;SDS011;32931;47.778;17.806;2022-12-01T14:21:04;44.67;;;25.48;;
47167;SDS011;32931;47.778;17.806;2022-12-01T14:23:34;45.80;;;25.30;;
47167;SDS011;32931;47.778;17.806;2022-12-01T14:36:33;40.80;;;25.73;;
47167;SDS011;32931;47.778;17.806;2022-12-01T14:39:16;46.25;;;26.27;;
47167;SDS011;32931;47.778;17.806;2022-12-01T14:49:19;48.75;;;27.52;;
47167;SDS011;32931;47.778;17.806;2022-12-01T14:51:50;53.22;;;28.58;;
47167;SDS011;32931;47.778;17.806;2022-12-01T14:54:28;53.03;;;29.40;;
47167;SDS011;32931;47.778;17.806;2022-12-01T14:57:00;53.35;;;30.48;;
47167;SDS011;32931;47.778;17.806;2022-12-01T14:59:28;54.03;;;30.13;;
47167;SDS011;32931;47.778;17.806;2022-12-01T15:01:56;52.30;;;29.17;;
47167;SDS011;32931;47.778;17.806;2022-12-01T15:04:34;57.95;;;29.33;;
47167;SDS011;32931;47.778;17.806;2022-12-01T15:07:20;50.60;;;30.35;;
47167;SDS011;32931;47.778;17.806;2022-12-01T15:09:59;53.88;;;32.53;;
47167;SDS011;32931;47.778;17.806;2022-12-01T15:12:26;61.03;;;33.33;;
47167;SDS011;32931;47.778;17.806;2022-12-01T15:14:53;63.90;;;34.75;;
47167;SDS011;32931;47.778;17.806;2022-12-01T15:17:53;71.30;;;35.25;;
47167;SDS011;32931;47.778;17.806;2022-12-01T15:20:29;66.22;;;38.00;;
47167;SDS011;32931;47.778;17.806;2022-12-01T15:23:00;73.70;;;40.60;;
47167;SDS011;32931;47.778;17.806;2022-12-01T15:30:40;90.38;;;54.70;;
47167;SDS011;32931;47.778;17.806;2022-12-01T15:33:10;126.03;;;84.25;;
47167;SDS011;32931;47.778;17.806;2022-12-01T15:35:52;185.48;;;123.63;;
47167;SDS011;32931;47.778;17.806;2022-12-01T15:38:23;151.02;;;100.47;;
47167;SDS011;32931;47.778;17.806;2022-12-01T15:40:53;124.63;;;79.05;;
47167;SDS011;32931;47.778;17.806;2022-12-01T15:43:21;70.85;;;43.17;;
47167;SDS011;32931;47.778;17.806;2022-12-01T15:45:59;90.88;;;57.28;;
47167;SDS011;32931;47.778;17.806;2022-12-01T15:48:35;86.45;;;55.88;;
47167;SDS011;32931;47.778;17.806;2022-12-01T15:53:54;75.68;;;44.58;;
47167;SDS011;32931;47.778;17.806;2022-12-01T15:56:24;67.53;;;40.13;;
47167;SDS011;32931;47.778;17.806;2022-12-01T15:58:50;60.97;;;34.38;;
47167;SDS011;32931;47.778;17.806;2022-12-01T16:01:20;72.18;;;36.50;;
47167;SDS011;32931;47.778;17.806;2022-12-01T16:03:48;63.40;;;36.72;;
47167;SDS011;32931;47.778;17.806;2022-12-01T16:06:15;58.58;;;34.10;;
47167;SDS011;32931;47.778;17.806;2022-12-01T16:08:50;69.78;;;36.22;;
47167;SDS011;32931;47.778;17.806;2022-12-01T16:11:18;61.25;;;36.47;;
47167;SDS011;32931;47.778;17.806;2022-12-01T16:13:56;62.63;;;34.97;;
47167;SDS011;32931;47.778;17.806;2022-12-01T16:16:46;59.28;;;34.22;;
47167;SDS011;32931;47.778;17.806;2022-12-01T16:24:19;58.28;;;35.50;;
47167;SDS011;32931;47.778;17.806;2022-12-01T16:26:47;61.30;;;37.88;;
47167;SDS011;32931;47.778;17.806;2022-12-01T16:29:22;70.53;;;37.65;;
47167;SDS011;32931;47.778;17.806;2022-12-01T16:31:50;69.47;;;41.08;;
47167;SDS011;32931;47.778;17.806;2022-12-01T16:34:19;67.45;;;40.80;;
47167;SDS011;32931;47.778;17.806;2022-12-01T16:36:47;66.35;;;40.72;;
47167;SDS011;32931;47.778;17.806;2022-12-01T16:39:13;80.10;;;43.70;;
47167;SDS011;32931;47.778;17.806;2022-12-01T16:41:41;78.20;;;42.67;;
47167;SDS011;32931;47.778;17.806;2022-12-01T16:44:11;71.38;;;42.67;;
47167;SDS011;32931;47.778;17.806;2022-12-01T16:46:41;76.88;;;43.35;;
47167;SDS011;32931;47.778;17.806;2022-12-01T16:49:07;78.88;;;41.13;;
47167;SDS011;32931;47.778;17.806;2022-12-01T16:51:34;78.80;;;42.70;;